sensor_id;sensor_type;location;lat;lon;timestamp;temperature;humidity
71514;DHT22;59335;46.652;21.272;2023-12-20T00:02:51;22.94;34.57
71514;DHT22;59335;46.652;21.272;2023-12-20T00:05:53;22.90;34.61
71514;DHT22;59335;46.652;21.272;2023-12-20T00:08:56;22.91;34.53
71514;DHT22;59335;46.652;21.272;2023-12-20T00:12:00;22.94;34.57
71514;DHT22;59335;46.652;21.272;2023-12-20T00:15:03;22.94;34.56
71514;DHT22;59335;46.652;21.272;2023-12-20T00:18:07;22.91;34.56
71514;DHT22;59335;46.652;21.272;2023-12-20T00:21:10;22.91;34.54
71514;DHT22;59335;46.652;21.272;2023-12-20T00:24:13;22.91;34.43
71514;DHT22;59335;46.652;21.272;2023-12-20T00:27:15;22.90;34.45
71514;DHT22;59335;46.652;21.272;2023-12-20T00:30:18;22.87;34.29
71514;DHT22;59335;46.652;21.272;2023-12-20T00:33:21;22.91;34.35
71514;DHT22;59335;46.652;21.272;2023-12-20T00:36:25;22.92;34.23
71514;DHT22;59335;46.652;21.272;2023-12-20T00:39:27;22.90;34.19
71514;DHT22;59335;46.652;21.272;2023-12-20T00:42:30;22.90;34.25
71514;DHT22;59335;46.652;21.272;2023-12-20T00:45:33;22.92;34.22
71514;DHT22;59335;46.652;21.272;2023-12-20T00:48:35;22.90;34.28
71514;DHT22;59335;46.652;21.272;2023-12-20T00:51:38;22.87;34.23
71514;DHT22;59335;46.652;21.272;2023-12-20T00:54:41;22.87;34.16
71514;DHT22;59335;46.652;21.272;2023-12-20T00:57:44;22.87;34.10
71514;DHT22;59335;46.652;21.272;2023-12-20T01:00:48;22.87;34.15
71514;DHT22;59335;46.652;21.272;2023-12-20T01:03:51;22.87;34.01
71514;DHT22;59335;46.652;21.272;2023-12-20T01:06:54;22.85;34.04
71514;DHT22;59335;46.652;21.272;2023-12-20T01:09:57;22.87;34.06
71514;DHT22;59335;46.652;21.272;2023-12-20T01:13:00;22.87;34.02
71514;DHT22;59335;46.652;21.272;2023-12-20T01:16:03;22.85;34.02
71514;DHT22;59335;46.652;21.272;2023-12-20T01:19:07;22.85;34.06
71514;DHT22;59335;46.652;21.272;2023-12-20T01:22:10;22.85;33.96
71514;DHT22;59335;46.652;21.272;2023-12-20T01:25:13;22.85;33.96
71514;DHT22;59335;46.652;21.272;2023-12-20T01:28:15;22.85;34.02
71514;DHT22;59335;46.652;21.272;2023-12-20T01:31:19;22.85;33.89
71514;DHT22;59335;46.652;21.272;2023-12-20T01:34:21;22.82;33.85
71514;DHT22;59335;46.652;21.272;2023-12-20T01:37:25;22.85;33.73
71514;DHT22;59335;46.652;21.272;2023-12-20T01:40:29;22.84;33.84
71514;DHT22;59335;46.652;21.272;2023-12-20T01:43:32;22.84;33.77
71514;DHT22;59335;46.652;21.272;2023-12-20T01:46:49;22.82;33.78
71514;DHT22;59335;46.652;21.272;2023-12-20T01:49:52;22.84;33.85
71514;DHT22;59335;46.652;21.272;2023-12-20T01:53:05;22.79;33.82
71514;DHT22;59335;46.652;21.272;2023-12-20T01:56:10;22.82;33.71
71514;DHT22;59335;46.652;21.272;2023-12-20T01:59:13;22.81;33.72
71514;DHT22;59335;46.652;21.272;2023-12-20T02:02:16;22.79;33.82
71514;DHT22;59335;46.652;21.272;2023-12-20T02:05:20;22.78;33.73
71514;DHT22;59335;46.652;21.272;2023-12-20T02:08:23;22.79;33.58
71514;DHT22;59335;46.652;21.272;2023-12-20T02:11:26;22.79;33.71
71514;DHT22;59335;46.652;21.272;2023-12-20T02:14:29;22.78;33.69
71514;DHT22;59335;46.652;21.272;2023-12-20T02:17:32;22.84;33.60
71514;DHT22;59335;46.652;21.272;2023-12-20T02:20:36;22.76;33.67
71514;DHT22;59335;46.652;21.272;2023-12-20T02:23:39;22.81;33.54
71514;DHT22;59335;46.652;21.272;2023-12-20T02:26:41;22.78;33.54
71514;DHT22;59335;46.652;21.272;2023-12-20T02:29:50;22.82;33.58
71514;DHT22;59335;46.652;21.272;2023-12-20T02:32:53;22.78;33.59
71514;DHT22;59335;46.652;21.272;2023-12-20T02:35:56;22.84;33.50
71514;DHT22;59335;46.652;21.272;2023-12-20T02:38:59;22.79;33.39
71514;DHT22;59335;46.652;21.272;2023-12-20T02:42:03;22.81;33.46
71514;DHT22;59335;46.652;21.272;2023-12-20T02:45:06;22.81;33.47
71514;DHT22;59335;46.652;21.272;2023-12-20T02:48:09;22.84;33.37
71514;DHT22;59335;46.652;21.272;2023-12-20T02:51:13;22.79;33.36
71514;DHT22;59335;46.652;21.272;2023-12-20T02:54:15;22.78;33.44
71514;DHT22;59335;46.652;21.272;2023-12-20T02:57:18;22.79;33.41
71514;DHT22;59335;46.652;21.272;2023-12-20T03:00:21;22.75;33.47
71514;DHT22;59335;46.652;21.272;2023-12-20T03:03:24;22.78;33.44
71514;DHT22;59335;46.652;21.272;2023-12-20T03:06:27;22.76;33.42
71514;DHT22;59335;46.652;21.272;2023-12-20T03:09:30;22.75;33.42
71514;DHT22;59335;46.652;21.272;2023-12-20T03:12:53;22.79;33.29
71514;DHT22;59335;46.652;21.272;2023-12-20T03:15:56;22.82;33.29
71514;DHT22;59335;46.652;21.272;2023-12-20T03:18:59;22.79;33.15
71514;DHT22;59335;46.652;21.272;2023-12-20T03:22:02;22.79;33.32
71514;DHT22;59335;46.652;21.272;2023-12-20T03:25:05;22.79;33.18
71514;DHT22;59335;46.652;21.272;2023-12-20T03:28:08;22.78;33.12
71514;DHT22;59335;46.652;21.272;2023-12-20T03:31:11;22.78;33.05
71514;DHT22;59335;46.652;21.272;2023-12-20T03:34:14;22.78;33.04
71514;DHT22;59335;46.652;21.272;2023-12-20T03:37:17;22.81;32.98
71514;DHT22;59335;46.652;21.272;2023-12-20T03:40:20;22.79;33.07
71514;DHT22;59335;46.652;21.272;2023-12-20T03:43:23;22.76;33.03
71514;DHT22;59335;46.652;21.272;2023-12-20T03:46:26;22.78;32.89
71514;DHT22;59335;46.652;21.272;2023-12-20T03:49:29;22.81;32.88
71514;DHT22;59335;46.652;21.272;2023-12-20T03:52:32;22.75;32.83
71514;DHT22;59335;46.652;21.272;2023-12-20T03:55:35;22.78;32.89
71514;DHT22;59335;46.652;21.272;2023-12-20T03:58:37;22.74;32.86
71514;DHT22;59335;46.652;21.272;2023-12-20T04:01:44;22.78;32.90
71514;DHT22;59335;46.652;21.272;2023-12-20T04:04:47;22.74;32.90
71514;DHT22;59335;46.652;21.272;2023-12-20T04:07:50;22.74;32.86
71514;DHT22;59335;46.652;21.272;2023-12-20T04:10:53;22.78;32.78
71514;DHT22;59335;46.652;21.272;2023-12-20T04:13:56;22.78;32.77
71514;DHT22;59335;46.652;21.272;2023-12-20T04:16:59;22.72;32.62
71514;DHT22;59335;46.652;21.272;2023-12-20T04:20:02;22.72;32.75
71514;DHT22;59335;46.652;21.272;2023-12-20T04:23:07;22.74;32.71
71514;DHT22;59335;46.652;21.272;2023-12-20T04:26:10;22.72;32.66
71514;DHT22;59335;46.652;21.272;2023-12-20T04:29:13;22.72;32.66
71514;DHT22;59335;46.652;21.272;2023-12-20T04:32:16;22.74;32.51
71514;DHT22;59335;46.652;21.272;2023-12-20T04:35:19;22.75;32.60
71514;DHT22;59335;46.652;21.272;2023-12-20T04:38:21;22.71;32.52
71514;DHT22;59335;46.652;21.272;2023-12-20T04:41:24;22.75;32.48
71514;DHT22;59335;46.652;21.272;2023-12-20T04:44:27;22.74;32.45
71514;DHT22;59335;46.652;21.272;2023-12-20T04:47:30;22.75;32.43
71514;DHT22;59335;46.652;21.272;2023-12-20T04:50:33;22.74;32.31
71514;DHT22;59335;46.652;21.272;2023-12-20T04:53:36;22.72;32.45
71514;DHT22;59335;46.652;21.272;2023-12-20T04:56:39;22.72;32.45
71514;DHT22;59335;46.652;21.272;2023-12-20T04:59:42;22.72;32.66
71514;DHT22;59335;46.652;21.272;2023-12-20T05:02:44;22.74;32.27
71514;DHT22;59335;46.652;21.272;2023-12-20T05:05:47;22.69;32.51
71514;DHT22;59335;46.652;21.272;2023-12-20T05:08:50;22.71;32.55
71514;DHT22;59335;46.652;21.272;2023-12-20T05:11:53;22.67;32.20
71514;DHT22;59335;46.652;21.272;2023-12-20T05:14:56;22.71;32.37
71514;DHT22;59335;46.652;21.272;2023-12-20T05:17:59;22.71;32.39
71514;DHT22;59335;46.652;21.272;2023-12-20T05:21:02;22.68;32.38
71514;DHT22;59335;46.652;21.272;2023-12-20T05:24:05;22.67;32.37
71514;DHT22;59335;46.652;21.272;2023-12-20T05:27:08;22.69;32.26
71514;DHT22;59335;46.652;21.272;2023-12-20T05:30:11;22.69;32.28
71514;DHT22;59335;46.652;21.272;2023-12-20T05:33:15;22.69;32.13
71514;DHT22;59335;46.652;21.272;2023-12-20T05:36:18;22.68;32.08
71514;DHT22;59335;46.652;21.272;2023-12-20T05:39:21;22.68;32.20
71514;DHT22;59335;46.652;21.272;2023-12-20T05:42:23;22.69;32.07
71514;DHT22;59335;46.652;21.272;2023-12-20T05:45:26;22.68;32.08
71514;DHT22;59335;46.652;21.272;2023-12-20T05:48:29;22.75;32.25
71514;DHT22;59335;46.652;21.272;2023-12-20T05:51:32;22.74;32.30
71514;DHT22;59335;46.652;21.272;2023-12-20T05:54:35;22.71;32.28
71514;DHT22;59335;46.652;21.272;2023-12-20T05:57:38;22.71;32.17
71514;DHT22;59335;46.652;21.272;2023-12-20T06:00:40;22.68;32.38
71514;DHT22;59335;46.652;21.272;2023-12-20T06:03:46;22.68;32.17
71514;DHT22;59335;46.652;21.272;2023-12-20T06:06:49;22.69;32.37
71514;DHT22;59335;46.652;21.272;2023-12-20T06:09:52;22.75;32.36
71514;DHT22;59335;46.652;21.272;2023-12-20T06:12:55;22.76;32.24
71514;DHT22;59335;46.652;21.272;2023-12-20T06:15:59;22.79;32.44
71514;DHT22;59335;46.652;21.272;2023-12-20T06:19:01;22.79;32.35
71514;DHT22;59335;46.652;21.272;2023-12-20T06:22:04;22.85;32.46
71514;DHT22;59335;46.652;21.272;2023-12-20T06:25:08;22.82;31.98
71514;DHT22;59335;46.652;21.272;2023-12-20T06:28:11;22.79;32.55
71514;DHT22;59335;46.652;21.272;2023-12-20T06:31:17;22.85;32.52
71514;DHT22;59335;46.652;21.272;2023-12-20T06:34:19;22.84;32.44
71514;DHT22;59335;46.652;21.272;2023-12-20T06:37:22;22.88;32.25
71514;DHT22;59335;46.652;21.272;2023-12-20T06:40:25;22.87;32.52
71514;DHT22;59335;46.652;21.272;2023-12-20T06:43:28;22.94;32.66
71514;DHT22;59335;46.652;21.272;2023-12-20T06:46:50;22.98;32.57
71514;DHT22;59335;46.652;21.272;2023-12-20T06:49:53;23.01;32.64
71514;DHT22;59335;46.652;21.272;2023-12-20T06:52:57;23.09;32.87
71514;DHT22;59335;46.652;21.272;2023-12-20T06:55:59;23.06;33.47
71514;DHT22;59335;46.652;21.272;2023-12-20T06:59:05;23.13;34.02
71514;DHT22;59335;46.652;21.272;2023-12-20T07:02:11;23.19;33.76
71514;DHT22;59335;46.652;21.272;2023-12-20T07:05:18;23.19;33.87
71514;DHT22;59335;46.652;21.272;2023-12-20T07:08:23;23.20;33.87
71514;DHT22;59335;46.652;21.272;2023-12-20T07:11:28;23.19;33.87
71514;DHT22;59335;46.652;21.272;2023-12-20T07:14:34;23.22;33.77
71514;DHT22;59335;46.652;21.272;2023-12-20T07:17:37;23.22;33.87
71514;DHT22;59335;46.652;21.272;2023-12-20T07:20:40;23.24;33.82
71514;DHT22;59335;46.652;21.272;2023-12-20T07:23:42;23.26;33.90
71514;DHT22;59335;46.652;21.272;2023-12-20T07:26:47;23.26;33.97
71514;DHT22;59335;46.652;21.272;2023-12-20T07:29:51;23.29;33.99
71514;DHT22;59335;46.652;21.272;2023-12-20T07:32:54;23.30;34.08
71514;DHT22;59335;46.652;21.272;2023-12-20T07:35:57;23.29;34.02
71514;DHT22;59335;46.652;21.272;2023-12-20T07:39:00;23.29;34.04
71514;DHT22;59335;46.652;21.272;2023-12-20T07:42:05;23.33;34.05
71514;DHT22;59335;46.652;21.272;2023-12-20T07:45:12;23.34;34.13
71514;DHT22;59335;46.652;21.272;2023-12-20T07:48:14;23.38;34.07
71514;DHT22;59335;46.652;21.272;2023-12-20T07:51:19;23.42;34.41
71514;DHT22;59335;46.652;21.272;2023-12-20T07:54:23;23.42;34.41
71514;DHT22;59335;46.652;21.272;2023-12-20T07:57:29;23.39;34.32
71514;DHT22;59335;46.652;21.272;2023-12-20T08:00:33;23.42;34.56
71514;DHT22;59335;46.652;21.272;2023-12-20T08:03:39;23.45;34.90
71514;DHT22;59335;46.652;21.272;2023-12-20T08:06:42;23.46;34.90
71514;DHT22;59335;46.652;21.272;2023-12-20T08:09:46;23.50;34.89
71514;DHT22;59335;46.652;21.272;2023-12-20T08:12:51;23.47;34.78
71514;DHT22;59335;46.652;21.272;2023-12-20T08:15:55;23.46;34.82
71514;DHT22;59335;46.652;21.272;2023-12-20T08:18:59;23.45;35.17
71514;DHT22;59335;46.652;21.272;2023-12-20T08:22:03;23.43;35.19
71514;DHT22;59335;46.652;21.272;2023-12-20T08:25:11;23.45;35.06
71514;DHT22;59335;46.652;21.272;2023-12-20T08:28:15;23.49;35.25
71514;DHT22;59335;46.652;21.272;2023-12-20T08:31:18;23.45;35.18
71514;DHT22;59335;46.652;21.272;2023-12-20T08:34:24;23.47;35.37
71514;DHT22;59335;46.652;21.272;2023-12-20T08:37:37;23.51;35.21
71514;DHT22;59335;46.652;21.272;2023-12-20T08:40:41;23.50;35.28
71514;DHT22;59335;46.652;21.272;2023-12-20T08:43:45;23.53;35.54
71514;DHT22;59335;46.652;21.272;2023-12-20T08:46:47;23.51;35.40
71514;DHT22;59335;46.652;21.272;2023-12-20T08:49:52;23.60;35.42
71514;DHT22;59335;46.652;21.272;2023-12-20T08:52:59;23.60;36.18
71514;DHT22;59335;46.652;21.272;2023-12-20T08:56:02;23.66;36.10
71514;DHT22;59335;46.652;21.272;2023-12-20T08:59:06;23.64;36.30
71514;DHT22;59335;46.652;21.272;2023-12-20T09:02:18;23.67;36.42
71514;DHT22;59335;46.652;21.272;2023-12-20T09:05:21;23.66;36.56
71514;DHT22;59335;46.652;21.272;2023-12-20T09:08:25;23.66;36.56
71514;DHT22;59335;46.652;21.272;2023-12-20T09:11:28;23.69;36.38
71514;DHT22;59335;46.652;21.272;2023-12-20T09:14:31;23.67;36.34
71514;DHT22;59335;46.652;21.272;2023-12-20T09:17:35;23.64;36.28
71514;DHT22;59335;46.652;21.272;2023-12-20T09:20:38;23.67;36.34
71514;DHT22;59335;46.652;21.272;2023-12-20T09:23:46;23.63;36.32
71514;DHT22;59335;46.652;21.272;2023-12-20T09:26:49;23.59;36.70
71514;DHT22;59335;46.652;21.272;2023-12-20T09:29:52;23.57;36.53
71514;DHT22;59335;46.652;21.272;2023-12-20T09:32:56;23.59;36.54
71514;DHT22;59335;46.652;21.272;2023-12-20T09:35:59;23.56;36.53
71514;DHT22;59335;46.652;21.272;2023-12-20T09:39:04;23.56;36.48
71514;DHT22;59335;46.652;21.272;2023-12-20T09:42:12;23.60;36.46
71514;DHT22;59335;46.652;21.272;2023-12-20T09:45:25;23.60;36.50
71514;DHT22;59335;46.652;21.272;2023-12-20T09:48:30;23.60;36.48
71514;DHT22;59335;46.652;21.272;2023-12-20T09:51:34;23.63;36.73
71514;DHT22;59335;46.652;21.272;2023-12-20T09:54:37;23.64;36.88
71514;DHT22;59335;46.652;21.272;2023-12-20T09:57:42;23.66;37.04
71514;DHT22;59335;46.652;21.272;2023-12-20T10:00:45;23.66;37.24
71514;DHT22;59335;46.652;21.272;2023-12-20T10:03:50;23.66;37.32
71514;DHT22;59335;46.652;21.272;2023-12-20T10:06:54;23.69;37.38
71514;DHT22;59335;46.652;21.272;2023-12-20T10:09:59;23.73;37.18
71514;DHT22;59335;46.652;21.272;2023-12-20T10:13:05;23.75;37.13
71514;DHT22;59335;46.652;21.272;2023-12-20T10:16:09;23.73;37.59
71514;DHT22;59335;46.652;21.272;2023-12-20T10:19:17;23.77;37.30
71514;DHT22;59335;46.652;21.272;2023-12-20T10:22:23;23.80;37.25
71514;DHT22;59335;46.652;21.272;2023-12-20T10:25:26;23.82;37.14
71514;DHT22;59335;46.652;21.272;2023-12-20T10:28:33;23.82;36.99
71514;DHT22;59335;46.652;21.272;2023-12-20T10:31:38;23.85;36.93
71514;DHT22;59335;46.652;21.272;2023-12-20T10:34:45;23.85;37.34
71514;DHT22;59335;46.652;21.272;2023-12-20T10:37:49;23.82;37.17
71514;DHT22;59335;46.652;21.272;2023-12-20T10:40:56;23.78;37.03
71514;DHT22;59335;46.652;21.272;2023-12-20T10:44:03;23.78;37.12
71514;DHT22;59335;46.652;21.272;2023-12-20T10:47:14;23.75;36.98
71514;DHT22;59335;46.652;21.272;2023-12-20T10:50:19;23.77;37.15
71514;DHT22;59335;46.652;21.272;2023-12-20T10:53:27;23.78;37.36
71514;DHT22;59335;46.652;21.272;2023-12-20T10:56:32;23.81;37.17
71514;DHT22;59335;46.652;21.272;2023-12-20T10:59:42;23.82;37.59
71514;DHT22;59335;46.652;21.272;2023-12-20T11:02:52;23.85;37.83
71514;DHT22;59335;46.652;21.272;2023-12-20T11:05:59;23.87;37.78
71514;DHT22;59335;46.652;21.272;2023-12-20T11:09:29;23.88;37.34
71514;DHT22;59335;46.652;21.272;2023-12-20T11:12:43;23.91;37.98
71514;DHT22;59335;46.652;21.272;2023-12-20T11:15:48;23.93;37.64
71514;DHT22;59335;46.652;21.272;2023-12-20T11:18:53;23.93;37.75
71514;DHT22;59335;46.652;21.272;2023-12-20T11:21:57;23.90;37.52
71514;DHT22;59335;46.652;21.272;2023-12-20T11:25:09;23.91;37.32
71514;DHT22;59335;46.652;21.272;2023-12-20T11:28:12;23.93;37.20
71514;DHT22;59335;46.652;21.272;2023-12-20T11:31:15;23.91;37.07
71514;DHT22;59335;46.652;21.272;2023-12-20T11:34:18;23.91;37.37
71514;DHT22;59335;46.652;21.272;2023-12-20T11:37:21;23.93;37.19
71514;DHT22;59335;46.652;21.272;2023-12-20T11:40:24;23.93;37.14
71514;DHT22;59335;46.652;21.272;2023-12-20T11:43:35;23.96;37.11
71514;DHT22;59335;46.652;21.272;2023-12-20T11:46:40;23.96;37.18
71514;DHT22;59335;46.652;21.272;2023-12-20T11:49:44;23.96;37.38
71514;DHT22;59335;46.652;21.272;2023-12-20T11:52:48;23.94;37.43
71514;DHT22;59335;46.652;21.272;2023-12-20T11:55:51;23.96;37.81
71514;DHT22;59335;46.652;21.272;2023-12-20T11:58:53;23.97;38.01
71514;DHT22;59335;46.652;21.272;2023-12-20T12:02:03;23.98;37.57
71514;DHT22;59335;46.652;21.272;2023-12-20T12:05:06;23.97;37.98
71514;DHT22;59335;46.652;21.272;2023-12-20T12:08:11;23.94;38.15
71514;DHT22;59335;46.652;21.272;2023-12-20T12:11:16;23.94;37.95
71514;DHT22;59335;46.652;21.272;2023-12-20T12:14:20;23.88;37.84
71514;DHT22;59335;46.652;21.272;2023-12-20T12:17:24;23.90;37.74
71514;DHT22;59335;46.652;21.272;2023-12-20T12:20:28;23.88;37.80
71514;DHT22;59335;46.652;21.272;2023-12-20T12:23:31;23.90;37.96
71514;DHT22;59335;46.652;21.272;2023-12-20T12:26:34;23.87;38.03
71514;DHT22;59335;46.652;21.272;2023-12-20T12:29:39;23.80;38.16
71514;DHT22;59335;46.652;21.272;2023-12-20T12:32:44;23.80;38.03
71514;DHT22;59335;46.652;21.272;2023-12-20T12:35:48;23.77;37.93
71514;DHT22;59335;46.652;21.272;2023-12-20T12:38:52;23.75;38.03
71514;DHT22;59335;46.652;21.272;2023-12-20T12:41:56;23.75;38.00
71514;DHT22;59335;46.652;21.272;2023-12-20T12:44:59;23.77;37.89
71514;DHT22;59335;46.652;21.272;2023-12-20T12:48:02;23.77;37.89
71514;DHT22;59335;46.652;21.272;2023-12-20T12:51:05;23.78;37.81
71514;DHT22;59335;46.652;21.272;2023-12-20T12:54:09;23.78;37.88
71514;DHT22;59335;46.652;21.272;2023-12-20T12:57:14;23.75;37.98
71514;DHT22;59335;46.652;21.272;2023-12-20T13:00:17;23.78;38.00
71514;DHT22;59335;46.652;21.272;2023-12-20T13:03:20;23.81;38.08
71514;DHT22;59335;46.652;21.272;2023-12-20T13:06:24;23.80;38.03
71514;DHT22;59335;46.652;21.272;2023-12-20T13:09:28;23.80;37.99
71514;DHT22;59335;46.652;21.272;2023-12-20T13:12:44;23.75;37.89
71514;DHT22;59335;46.652;21.272;2023-12-20T13:15:48;23.75;38.18
71514;DHT22;59335;46.652;21.272;2023-12-20T13:18:55;23.75;37.93
71514;DHT22;59335;46.652;21.272;2023-12-20T13:21:59;23.74;37.90
71514;DHT22;59335;46.652;21.272;2023-12-20T13:25:02;23.74;37.83
71514;DHT22;59335;46.652;21.272;2023-12-20T13:28:06;23.73;37.83
71514;DHT22;59335;46.652;21.272;2023-12-20T13:31:11;23.73;37.80
71514;DHT22;59335;46.652;21.272;2023-12-20T13:34:14;23.73;37.84
71514;DHT22;59335;46.652;21.272;2023-12-20T13:37:16;23.71;37.73
71514;DHT22;59335;46.652;21.272;2023-12-20T13:40:20;23.71;37.78
71514;DHT22;59335;46.652;21.272;2023-12-20T13:43:23;23.73;37.72
71514;DHT22;59335;46.652;21.272;2023-12-20T13:46:27;23.71;38.29
71514;DHT22;59335;46.652;21.272;2023-12-20T13:49:38;23.74;38.07
71514;DHT22;59335;46.652;21.272;2023-12-20T13:52:41;23.73;37.75
71514;DHT22;59335;46.652;21.272;2023-12-20T13:55:44;23.73;37.61
71514;DHT22;59335;46.652;21.272;2023-12-20T13:58:50;23.73;37.56
71514;DHT22;59335;46.652;21.272;2023-12-20T14:01:53;23.71;37.61
71514;DHT22;59335;46.652;21.272;2023-12-20T14:04:58;23.70;37.54
71514;DHT22;59335;46.652;21.272;2023-12-20T14:08:06;23.67;37.52
71514;DHT22;59335;46.652;21.272;2023-12-20T14:11:10;23.61;37.59
71514;DHT22;59335;46.652;21.272;2023-12-20T14:14:14;23.59;35.80
71514;DHT22;59335;46.652;21.272;2023-12-20T14:17:18;23.59;35.67
71514;DHT22;59335;46.652;21.272;2023-12-20T14:20:20;23.57;36.21
71514;DHT22;59335;46.652;21.272;2023-12-20T14:23:23;23.59;36.60
71514;DHT22;59335;46.652;21.272;2023-12-20T14:26:26;23.60;36.75
71514;DHT22;59335;46.652;21.272;2023-12-20T14:29:30;23.60;36.88
71514;DHT22;59335;46.652;21.272;2023-12-20T14:32:34;23.60;36.95
71514;DHT22;59335;46.652;21.272;2023-12-20T14:35:40;23.59;37.06
71514;DHT22;59335;46.652;21.272;2023-12-20T14:38:48;23.60;37.06
71514;DHT22;59335;46.652;21.272;2023-12-20T14:41:52;23.59;36.98
71514;DHT22;59335;46.652;21.272;2023-12-20T14:44:59;23.63;36.86
71514;DHT22;59335;46.652;21.272;2023-12-20T14:48:03;23.60;36.92
71514;DHT22;59335;46.652;21.272;2023-12-20T14:51:05;23.63;36.89
71514;DHT22;59335;46.652;21.272;2023-12-20T14:54:09;23.61;36.78
71514;DHT22;59335;46.652;21.272;2023-12-20T14:57:12;23.61;36.71
71514;DHT22;59335;46.652;21.272;2023-12-20T15:00:15;23.61;36.75
71514;DHT22;59335;46.652;21.272;2023-12-20T15:03:19;23.61;36.80
71514;DHT22;59335;46.652;21.272;2023-12-20T15:06:22;23.60;36.86
71514;DHT22;59335;46.652;21.272;2023-12-20T15:09:25;23.61;36.93
71514;DHT22;59335;46.652;21.272;2023-12-20T15:12:28;23.54;36.90
71514;DHT22;59335;46.652;21.272;2023-12-20T15:15:31;23.60;36.85
71514;DHT22;59335;46.652;21.272;2023-12-20T15:18:36;23.56;36.93
71514;DHT22;59335;46.652;21.272;2023-12-20T15:21:39;23.59;37.12
71514;DHT22;59335;46.652;21.272;2023-12-20T15:24:50;23.57;36.96
71514;DHT22;59335;46.652;21.272;2023-12-20T15:27:54;23.60;36.98
71514;DHT22;59335;46.652;21.272;2023-12-20T15:30:57;23.59;37.10
71514;DHT22;59335;46.652;21.272;2023-12-20T15:34:01;23.57;37.27
71514;DHT22;59335;46.652;21.272;2023-12-20T15:37:04;23.54;37.31
71514;DHT22;59335;46.652;21.272;2023-12-20T15:40:08;23.49;37.16
71514;DHT22;59335;46.652;21.272;2023-12-20T15:43:12;23.47;37.05
71514;DHT22;59335;46.652;21.272;2023-12-20T15:46:15;23.36;39.22
71514;DHT22;59335;46.652;21.272;2023-12-20T15:49:18;23.23;38.26
71514;DHT22;59335;46.652;21.272;2023-12-20T15:52:22;23.18;38.35
71514;DHT22;59335;46.652;21.272;2023-12-20T15:55:25;23.16;38.60
71514;DHT22;59335;46.652;21.272;2023-12-20T15:58:29;23.19;40.68
71514;DHT22;59335;46.652;21.272;2023-12-20T16:01:33;23.23;41.45
71514;DHT22;59335;46.652;21.272;2023-12-20T16:04:37;23.29;40.77
71514;DHT22;59335;46.652;21.272;2023-12-20T16:07:40;23.30;40.44
71514;DHT22;59335;46.652;21.272;2023-12-20T16:10:44;23.32;40.22
71514;DHT22;59335;46.652;21.272;2023-12-20T16:13:46;23.33;39.81
71514;DHT22;59335;46.652;21.272;2023-12-20T16:16:49;23.34;39.67
71514;DHT22;59335;46.652;21.272;2023-12-20T16:19:52;23.34;39.41
71514;DHT22;59335;46.652;21.272;2023-12-20T16:22:55;23.33;39.16
71514;DHT22;59335;46.652;21.272;2023-12-20T16:25:57;23.34;39.12
71514;DHT22;59335;46.652;21.272;2023-12-20T16:29:00;23.34;38.90
71514;DHT22;59335;46.652;21.272;2023-12-20T16:32:03;23.36;38.75
71514;DHT22;59335;46.652;21.272;2023-12-20T16:35:06;23.36;38.59
71514;DHT22;59335;46.652;21.272;2023-12-20T16:38:10;23.34;38.45
71514;DHT22;59335;46.652;21.272;2023-12-20T16:41:12;23.38;38.38
71514;DHT22;59335;46.652;21.272;2023-12-20T16:44:16;23.34;38.28
71514;DHT22;59335;46.652;21.272;2023-12-20T16:47:18;23.34;38.20
71514;DHT22;59335;46.652;21.272;2023-12-20T16:50:21;23.38;38.14
71514;DHT22;59335;46.652;21.272;2023-12-20T16:53:24;23.36;38.16
71514;DHT22;59335;46.652;21.272;2023-12-20T16:56:27;23.38;38.04
71514;DHT22;59335;46.652;21.272;2023-12-20T16:59:30;23.36;37.92
71514;DHT22;59335;46.652;21.272;2023-12-20T17:02:33;23.33;37.92
71514;DHT22;59335;46.652;21.272;2023-12-20T17:05:36;23.34;37.75
71514;DHT22;59335;46.652;21.272;2023-12-20T17:08:39;23.33;37.75
71514;DHT22;59335;46.652;21.272;2023-12-20T17:11:42;23.33;37.65
71514;DHT22;59335;46.652;21.272;2023-12-20T17:14:46;23.32;37.62
71514;DHT22;59335;46.652;21.272;2023-12-20T17:17:49;23.32;37.57
71514;DHT22;59335;46.652;21.272;2023-12-20T17:20:53;23.30;37.51
71514;DHT22;59335;46.652;21.272;2023-12-20T17:23:56;23.32;37.46
71514;DHT22;59335;46.652;21.272;2023-12-20T17:26:59;23.30;37.38
71514;DHT22;59335;46.652;21.272;2023-12-20T17:30:01;23.27;37.44
71514;DHT22;59335;46.652;21.272;2023-12-20T17:33:04;23.29;37.35
71514;DHT22;59335;46.652;21.272;2023-12-20T17:36:08;23.29;37.21
71514;DHT22;59335;46.652;21.272;2023-12-20T17:39:11;23.27;37.14
71514;DHT22;59335;46.652;21.272;2023-12-20T17:42:13;23.30;37.06
71514;DHT22;59335;46.652;21.272;2023-12-20T17:45:16;23.29;37.03
71514;DHT22;59335;46.652;21.272;2023-12-20T17:48:19;23.29;36.95
71514;DHT22;59335;46.652;21.272;2023-12-20T17:51:23;23.29;36.92
71514;DHT22;59335;46.652;21.272;2023-12-20T17:54:26;23.27;36.92
71514;DHT22;59335;46.652;21.272;2023-12-20T17:57:32;23.29;36.89
71514;DHT22;59335;46.652;21.272;2023-12-20T18:00:35;23.27;36.86
71514;DHT22;59335;46.652;21.272;2023-12-20T18:03:38;23.29;36.82
71514;DHT22;59335;46.652;21.272;2023-12-20T18:06:42;23.27;36.79
71514;DHT22;59335;46.652;21.272;2023-12-20T18:09:46;23.24;36.76
71514;DHT22;59335;46.652;21.272;2023-12-20T18:12:49;23.27;36.68
71514;DHT22;59335;46.652;21.272;2023-12-20T18:15:53;23.27;36.65
71514;DHT22;59335;46.652;21.272;2023-12-20T18:18:57;23.26;36.69
71514;DHT22;59335;46.652;21.272;2023-12-20T18:22:01;23.24;36.65
71514;DHT22;59335;46.652;21.272;2023-12-20T18:25:06;23.23;36.59
71514;DHT22;59335;46.652;21.272;2023-12-20T18:28:11;23.24;36.60
71514;DHT22;59335;46.652;21.272;2023-12-20T18:31:14;23.24;36.48
71514;DHT22;59335;46.652;21.272;2023-12-20T18:34:18;23.24;36.44
71514;DHT22;59335;46.652;21.272;2023-12-20T18:37:23;23.22;36.42
71514;DHT22;59335;46.652;21.272;2023-12-20T18:40:26;23.23;36.36
71514;DHT22;59335;46.652;21.272;2023-12-20T18:43:32;23.23;36.25
71514;DHT22;59335;46.652;21.272;2023-12-20T18:46:36;23.23;36.18
71514;DHT22;59335;46.652;21.272;2023-12-20T18:49:40;23.24;36.18
71514;DHT22;59335;46.652;21.272;2023-12-20T18:52:44;23.23;36.09
71514;DHT22;59335;46.652;21.272;2023-12-20T18:55:47;23.23;36.18
71514;DHT22;59335;46.652;21.272;2023-12-20T18:58:51;23.18;36.14
71514;DHT22;59335;46.652;21.272;2023-12-20T19:01:55;23.19;36.11
71514;DHT22;59335;46.652;21.272;2023-12-20T19:05:00;23.22;36.01